sensor_id;sensor_type;location;lat;lon;timestamp;P1;durP1;ratioP1;P2;durP2;ratioP2
24086;SDS011;22893;50.572;7.234;2022-12-05T16:42:22;6.03;;;3.33;;
24086;SDS011;22893;50.572;7.234;2022-12-05T16:45:00;8.13;;;3.50;;
24086;SDS011;22893;50.572;7.234;2022-12-05T16:50:30;11.22;;;3.45;;
24086;SDS011;22893;50.572;7.234;2022-12-05T16:53:00;8.85;;;3.27;;
24086;SDS011;22893;50.572;7.234;2022-12-05T16:55:29;5.90;;;3.15;;
24086;SDS011;22893;50.572;7.234;2022-12-05T16:57:59;12.20;;;3.98;;
24086;SDS011;22893;50.572;7.234;2022-12-05T17:00:27;7.10;;;3.20;;
24086;SDS011;22893;50.572;7.234;2022-12-05T17:02:56;6.00;;;3.47;;
24086;SDS011;22893;50.572;7.234;2022-12-05T17:05:24;5.78;;;3.37;;
24086;SDS011;22893;50.572;7.234;2022-12-05T17:07:51;7.35;;;4.05;;
24086;SDS011;22893;50.572;7.234;2022-12-05T17:10:19;7.25;;;3.55;;
24086;SDS011;22893;50.572;7.234;2022-12-05T17:12:47;8.03;;;3.35;;
24086;SDS011;22893;50.572;7.234;2022-12-05T17:15:18;7.28;;;4.10;;
24086;SDS011;22893;50.572;7.234;2022-12-05T17:17:46;5.97;;;3.55;;
24086;SDS011;22893;50.572;7.234;2022-12-05T17:20:14;5.92;;;2.98;;
24086;SDS011;22893;50.572;7.234;2022-12-05T17:22:42;7.92;;;3.67;;
24086;SDS011;22893;50.572;7.234;2022-12-05T17:25:26;6.35;;;3.27;;
24086;SDS011;22893;50.572;7.234;2022-12-05T17:27:56;6.40;;;3.35;;
24086;SDS011;22893;50.572;7.234;2022-12-05T17:30:24;5.40;;;3.20;;
24086;SDS011;22893;50.572;7.234;2022-12-05T17:32:51;11.97;;;6.03;;
24086;SDS011;22893;50.572;7.234;2022-12-05T17:35:20;26.15;;;10.40;;
24086;SDS011;22893;50.572;7.234;2022-12-05T17:37:48;29.30;;;13.83;;
24086;SDS011;22893;50.572;7.234;2022-12-05T17:40:16;31.40;;;15.83;;
24086;SDS011;22893;50.572;7.234;2022-12-05T17:42:43;48.95;;;21.90;;
24086;SDS011;22893;50.572;7.234;2022-12-05T17:45:11;52.58;;;23.22;;
24086;SDS011;22893;50.572;7.234;2022-12-05T17:47:41;46.55;;;22.73;;
24086;SDS011;22893;50.572;7.234;2022-12-05T17:50:16;44.42;;;21.57;;
24086;SDS011;22893;50.572;7.234;2022-12-05T17:52:42;46.98;;;19.40;;
24086;SDS011;22893;50.572;7.234;2022-12-05T17:55:20;40.00;;;18.37;;
24086;SDS011;22893;50.572;7.234;2022-12-05T17:57:49;37.85;;;18.20;;
24086;SDS011;22893;50.572;7.234;2022-12-05T18:00:19;50.98;;;16.97;;
24086;SDS011;22893;50.572;7.234;2022-12-05T18:02:48;37.15;;;16.23;;
24086;SDS011;22893;50.572;7.234;2022-12-05T18:05:17;37.78;;;18.02;;
24086;SDS011;22893;50.572;7.234;2022-12-05T18:07:45;39.55;;;17.87;;
24086;SDS011;22893;50.572;7.234;2022-12-05T18:10:15;40.73;;;17.65;;
24086;SDS011;22893;50.572;7.234;2022-12-05T18:12:44;31.27;;;15.90;;
24086;SDS011;22893;50.572;7.234;2022-12-05T18:15:12;33.88;;;14.40;;
24086;SDS011;22893;50.572;7.234;2022-12-05T18:17:41;34.80;;;15.43;;
24086;SDS011;22893;50.572;7.234;2022-12-05T18:20:10;36.20;;;14.63;;
24086;SDS011;22893;50.572;7.234;2022-12-05T18:22:39;24.02;;;13.20;;
24086;SDS011;22893;50.572;7.234;2022-12-05T18:25:07;26.87;;;12.75;;
24086;SDS011;22893;50.572;7.234;2022-12-05T18:27:35;30.25;;;13.15;;
24086;SDS011;22893;50.572;7.234;2022-12-05T18:30:04;23.95;;;11.50;;
24086;SDS011;22893;50.572;7.234;2022-12-05T18:32:33;22.22;;;12.23;;
24086;SDS011;22893;50.572;7.234;2022-12-05T18:35:00;29.00;;;11.30;;
24086;SDS011;22893;50.572;7.234;2022-12-05T18:37:33;19.73;;;10.08;;
24086;SDS011;22893;50.572;7.234;2022-12-05T18:40:03;23.87;;;10.08;;
24086;SDS011;22893;50.572;7.234;2022-12-05T18:42:31;22.35;;;10.00;;
24086;SDS011;22893;50.572;7.234;2022-12-05T18:44:59;23.25;;;9.68;;
24086;SDS011;22893;50.572;7.234;2022-12-05T18:47:27;21.40;;;9.08;;
24086;SDS011;22893;50.572;7.234;2022-12-05T18:49:55;24.25;;;8.85;;
24086;SDS011;22893;50.572;7.234;2022-12-05T18:52:22;19.45;;;7.42;;
24086;SDS011;22893;50.572;7.234;2022-12-05T18:54:50;18.73;;;9.08;;
24086;SDS011;22893;50.572;7.234;2022-12-05T18:57:18;17.10;;;7.83;;
24086;SDS011;22893;50.572;7.234;2022-12-05T18:59:45;17.70;;;7.30;;
24086;SDS011;22893;50.572;7.234;2022-12-05T19:02:15;12.75;;;8.15;;
24086;SDS011;22893;50.572;7.234;2022-12-05T19:04:43;20.08;;;7.75;;
24086;SDS011;22893;50.572;7.234;2022-12-05T19:07:11;14.25;;;7.17;;
24086;SDS011;22893;50.572;7.234;2022-12-05T19:09:38;14.83;;;7.20;;
24086;SDS011;22893;50.572;7.234;2022-12-05T19:12:06;12.23;;;6.90;;
24086;SDS011;22893;50.572;7.234;2022-12-05T19:14:35;13.05;;;7.17;;
24086;SDS011;22893;50.572;7.234;2022-12-05T19:17:03;15.23;;;7.22;;
24086;SDS011;22893;50.572;7.234;2022-12-05T19:19:31;17.25;;;7.42;;
24086;SDS011;22893;50.572;7.234;2022-12-05T19:21:58;10.55;;;5.67;;
24086;SDS011;22893;50.572;7.234;2022-12-05T19:24:27;10.20;;;5.53;;
24086;SDS011;22893;50.572;7.234;2022-12-05T19:26:54;16.60;;;6.33;;
24086;SDS011;22893;50.572;7.234;2022-12-05T19:29:22;7.50;;;4.25;;
24086;SDS011;22893;50.572;7.234;2022-12-05T19:31:50;17.67;;;6.03;;
24086;SDS011;22893;50.572;7.234;2022-12-05T19:34:17;16.73;;;5.90;;
24086;SDS011;22893;50.572;7.234;2022-12-05T19:36:47;8.53;;;4.97;;
24086;SDS011;22893;50.572;7.234;2022-12-05T19:39:16;10.25;;;5.40;;
24086;SDS011;22893;50.572;7.234;2022-12-05T19:41:45;9.25;;;5.53;;
24086;SDS011;22893;50.572;7.234;2022-12-05T19:44:14;7.78;;;4.40;;
24086;SDS011;22893;50.572;7.234;2022-12-05T19:46:41;8.65;;;4.50;;
24086;SDS011;22893;50.572;7.234;2022-12-05T19:49:10;9.78;;;4.58;;
24086;SDS011;22893;50.572;7.234;2022-12-05T19:51:40;12.13;;;5.20;;
24086;SDS011;22893;50.572;7.234;2022-12-05T19:54:09;9.30;;;4.10;;
24086;SDS011;22893;50.572;7.234;2022-12-05T19:56:38;11.22;;;4.75;;
24086;SDS011;22893;50.572;7.234;2022-12-05T19:59:06;8.53;;;4.50;;
24086;SDS011;22893;50.572;7.234;2022-12-05T20:01:35;8.50;;;4.15;;
24086;SDS011;22893;50.572;7.234;2022-12-05T20:04:11;7.85;;;4.10;;
24086;SDS011;22893;50.572;7.234;2022-12-05T20:06:41;7.83;;;4.05;;
24086;SDS011;22893;50.572;7.234;2022-12-05T20:09:12;8.45;;;3.62;;
24086;SDS011;22893;50.572;7.234;2022-12-05T20:11:42;5.45;;;3.20;;
24086;SDS011;22893;50.572;7.234;2022-12-05T20:14:19;11.65;;;4.40;;
24086;SDS011;22893;50.572;7.234;2022-12-05T20:16:44;9.73;;;4.53;;
24086;SDS011;22893;50.572;7.234;2022-12-05T20:19:12;7.58;;;4.10;;
24086;SDS011;22893;50.572;7.234;2022-12-05T20:21:39;9.00;;;4.47;;
24086;SDS011;22893;50.572;7.234;2022-12-05T20:24:09;8.08;;;3.60;;
24086;SDS011;22893;50.572;7.234;2022-12-05T20:26:38;11.25;;;4.72;;
24086;SDS011;22893;50.572;7.234;2022-12-05T20:29:07;6.45;;;3.87;;
24086;SDS011;22893;50.572;7.234;2022-12-05T20:31:41;6.92;;;3.45;;
24086;SDS011;22893;50.572;7.234;2022-12-05T20:34:08;5.53;;;3.25;;
24086;SDS011;22893;50.572;7.234;2022-12-05T20:36:36;7.42;;;3.47;;
24086;SDS011;22893;50.572;7.234;2022-12-05T20:39:05;5.85;;;3.35;;
24086;SDS011;22893;50.572;7.234;2022-12-05T20:41:34;7.67;;;3.67;;
24086;SDS011;22893;50.572;7.234;2022-12-05T20:44:04;9.40;;;3.52;;
24086;SDS011;22893;50.572;7.234;2022-12-05T20:46:32;6.35;;;3.40;;
24086;SDS011;22893;50.572;7.234;2022-12-05T20:49:01;5.30;;;3.20;;
24086;SDS011;22893;50.572;7.234;2022-12-05T20:51:29;7.55;;;3.35;;
24086;SDS011;22893;50.572;7.234;2022-12-05T20:53:59;7.47;;;3.50;;
24086;SDS011;22893;50.572;7.234;2022-12-05T20:56:29;6.17;;;3.42;;
24086;SDS011;22893;50.572;7.234;2022-12-05T20:58:59;7.37;;;3.87;;
24086;SDS011;22893;50.572;7.234;2022-12-05T21:01:29;8.38;;;3.98;;
24086;SDS011;22893;50.572;7.234;2022-12-05T21:03:58;7.65;;;3.70;;
24086;SDS011;22893;50.572;7.234;2022-12-05T21:06:27;13.75;;;4.10;;
24086;SDS011;22893;50.572;7.234;2022-12-05T21:08:56;5.85;;;3.27;;
24086;SDS011;22893;50.572;7.234;2022-12-05T21:11:25;9.70;;;4.50;;
24086;SDS011;22893;50.572;7.234;2022-12-05T21:13:55;7.83;;;4.03;;
24086;SDS011;22893;50.572;7.234;2022-12-05T21:16:26;14.40;;;4.53;;
24086;SDS011;22893;50.572;7.234;2022-12-05T21:18:54;7.60;;;4.00;;
24086;SDS011;22893;50.572;7.234;2022-12-05T21:21:24;8.70;;;3.77;;
24086;SDS011;22893;50.572;7.234;2022-12-05T21:23:58;10.70;;;4.75;;
24086;SDS011;22893;50.572;7.234;2022-12-05T21:26:28;14.53;;;5.12;;
24086;SDS011;22893;50.572;7.234;2022-12-05T21:28:59;8.65;;;3.92;;
24086;SDS011;22893;50.572;7.234;2022-12-05T21:31:31;7.90;;;3.30;;
